sensor_id;sensor_type;location;lat;lon;timestamp;P1;durP1;ratioP1;P2;durP2;ratioP2
47103;SDS011;32853;52.164;5.400;2023-03-16T00:06:12;8.82;;;2.65;;
47103;SDS011;32853;52.164;5.400;2023-03-16T00:08:50;4.40;;;2.05;;
47103;SDS011;32853;52.164;5.400;2023-03-16T00:11:47;3.92;;;1.98;;
47103;SDS011;32853;52.164;5.400;2023-03-16T00:14:27;2.50;;;1.90;;
47103;SDS011;32853;52.164;5.400;2023-03-16T00:24:06;5.25;;;2.28;;
47103;SDS011;32853;52.164;5.400;2023-03-16T00:26:32;3.97;;;1.45;;
47103;SDS011;32853;52.164;5.400;2023-03-16T00:28:57;4.65;;;2.10;;
47103;SDS011;32853;52.164;5.400;2023-03-16T00:31:23;6.53;;;2.50;;
47103;SDS011;32853;52.164;5.400;2023-03-16T00:33:49;4.18;;;2.22;;
47103;SDS011;32853;52.164;5.400;2023-03-16T00:36:15;4.88;;;1.88;;
47103;SDS011;32853;52.164;5.400;2023-03-16T00:38:41;4.60;;;2.20;;
47103;SDS011;32853;52.164;5.400;2023-03-16T00:41:11;4.63;;;2.38;;
47103;SDS011;32853;52.164;5.400;2023-03-16T00:43:38;5.32;;;2.47;;
47103;SDS011;32853;52.164;5.400;2023-03-16T00:46:06;5.65;;;2.50;;
47103;SDS011;32853;52.164;5.400;2023-03-16T00:48:39;11.43;;;2.60;;
47103;SDS011;32853;52.164;5.400;2023-03-16T00:51:07;8.65;;;2.50;;
47103;SDS011;32853;52.164;5.400;2023-03-16T00:53:37;7.35;;;2.00;;
47103;SDS011;32853;52.164;5.400;2023-03-16T00:56:03;3.42;;;2.25;;
47103;SDS011;32853;52.164;5.400;2023-03-16T00:58:30;4.50;;;2.20;;
47103;SDS011;32853;52.164;5.400;2023-03-16T01:01:07;5.13;;;2.50;;
47103;SDS011;32853;52.164;5.400;2023-03-16T01:03:34;3.85;;;2.70;;
47103;SDS011;32853;52.164;5.400;2023-03-16T01:06:06;7.57;;;2.17;;
47103;SDS011;32853;52.164;5.400;2023-03-16T01:08:34;4.32;;;2.75;;
47103;SDS011;32853;52.164;5.400;2023-03-16T01:11:06;8.80;;;3.00;;
47103;SDS011;32853;52.164;5.400;2023-03-16T01:13:34;3.75;;;1.90;;
47103;SDS011;32853;52.164;5.400;2023-03-16T01:16:02;3.92;;;2.03;;
47103;SDS011;32853;52.164;5.400;2023-03-16T01:21:04;5.53;;;2.92;;
47103;SDS011;32853;52.164;5.400;2023-03-16T01:23:32;6.25;;;2.80;;
47103;SDS011;32853;52.164;5.400;2023-03-16T01:25:57;5.50;;;2.65;;
47103;SDS011;32853;52.164;5.400;2023-03-16T01:28:24;6.82;;;3.00;;
47103;SDS011;32853;52.164;5.400;2023-03-16T01:30:54;5.07;;;2.53;;
47103;SDS011;32853;52.164;5.400;2023-03-16T01:33:23;3.97;;;2.85;;
47103;SDS011;32853;52.164;5.400;2023-03-16T01:35:51;10.05;;;2.60;;
47103;SDS011;32853;52.164;5.400;2023-03-16T01:38:36;4.13;;;2.25;;
47103;SDS011;32853;52.164;5.400;2023-03-16T01:41:02;12.68;;;2.75;;
47103;SDS011;32853;52.164;5.400;2023-03-16T01:54:05;3.58;;;2.10;;
47103;SDS011;32853;52.164;5.400;2023-03-16T01:59:32;5.32;;;2.83;;
47103;SDS011;32853;52.164;5.400;2023-03-16T02:02:01;7.90;;;3.23;;
47103;SDS011;32853;52.164;5.400;2023-03-16T02:07:18;6.05;;;2.90;;
47103;SDS011;32853;52.164;5.400;2023-03-16T02:09:56;7.88;;;2.58;;
47103;SDS011;32853;52.164;5.400;2023-03-16T02:12:38;3.72;;;2.70;;
47103;SDS011;32853;52.164;5.400;2023-03-16T02:29:09;3.88;;;2.47;;
47103;SDS011;32853;52.164;5.400;2023-03-16T02:31:51;9.18;;;3.45;;
47103;SDS011;32853;52.164;5.400;2023-03-16T02:36:58;4.20;;;2.67;;
47103;SDS011;32853;52.164;5.400;2023-03-16T02:39:25;4.97;;;2.75;;
47103;SDS011;32853;52.164;5.400;2023-03-16T02:41:50;4.47;;;2.78;;
47103;SDS011;32853;52.164;5.400;2023-03-16T02:44:18;7.95;;;3.10;;
47103;SDS011;32853;52.164;5.400;2023-03-16T02:46:50;4.95;;;2.58;;
47103;SDS011;32853;52.164;5.400;2023-03-16T02:49:21;4.75;;;2.90;;
47103;SDS011;32853;52.164;5.400;2023-03-16T02:52:03;5.22;;;2.67;;
47103;SDS011;32853;52.164;5.400;2023-03-16T02:54:30;5.75;;;2.60;;
47103;SDS011;32853;52.164;5.400;2023-03-16T02:56:55;4.15;;;2.78;;
47103;SDS011;32853;52.164;5.400;2023-03-16T02:59:24;4.90;;;3.10;;
47103;SDS011;32853;52.164;5.400;2023-03-16T03:01:51;5.15;;;3.00;;
47103;SDS011;32853;52.164;5.400;2023-03-16T03:04:16;11.07;;;2.72;;
47103;SDS011;32853;52.164;5.400;2023-03-16T03:06:43;6.43;;;2.85;;
47103;SDS011;32853;52.164;5.400;2023-03-16T03:09:11;9.65;;;2.95;;
47103;SDS011;32853;52.164;5.400;2023-03-16T03:11:36;4.35;;;2.33;;
47103;SDS011;32853;52.164;5.400;2023-03-16T03:14:02;3.20;;;2.50;;
47103;SDS011;32853;52.164;5.400;2023-03-16T03:16:33;7.90;;;3.88;;
47103;SDS011;32853;52.164;5.400;2023-03-16T03:18:58;5.85;;;2.83;;
47103;SDS011;32853;52.164;5.400;2023-03-16T03:21:30;9.10;;;3.08;;
47103;SDS011;32853;52.164;5.400;2023-03-16T03:24:08;5.20;;;2.42;;
47103;SDS011;32853;52.164;5.400;2023-03-16T03:26:55;5.10;;;3.83;;
47103;SDS011;32853;52.164;5.400;2023-03-16T03:29:21;7.07;;;2.90;;
47103;SDS011;32853;52.164;5.400;2023-03-16T03:31:46;6.50;;;3.08;;
47103;SDS011;32853;52.164;5.400;2023-03-16T03:34:22;5.85;;;2.97;;
47103;SDS011;32853;52.164;5.400;2023-03-16T03:36:48;7.68;;;3.15;;
47103;SDS011;32853;52.164;5.400;2023-03-16T03:39:15;7.50;;;3.28;;
47103;SDS011;32853;52.164;5.400;2023-03-16T03:41:43;5.35;;;3.55;;
47103;SDS011;32853;52.164;5.400;2023-03-16T03:44:12;7.72;;;2.78;;
47103;SDS011;32853;52.164;5.400;2023-03-16T03:46:37;8.18;;;3.55;;
47103;SDS011;32853;52.164;5.400;2023-03-16T03:49:02;9.68;;;3.42;;
47103;SDS011;32853;52.164;5.400;2023-03-16T03:51:37;4.07;;;3.13;;
47103;SDS011;32853;52.164;5.400;2023-03-16T03:54:02;4.90;;;2.60;;
47103;SDS011;32853;52.164;5.400;2023-03-16T03:56:28;4.75;;;2.47;;
47103;SDS011;32853;52.164;5.400;2023-03-16T03:58:54;8.40;;;2.97;;
47103;SDS011;32853;52.164;5.400;2023-03-16T04:01:20;6.43;;;3.55;;
47103;SDS011;32853;52.164;5.400;2023-03-16T04:03:46;12.68;;;3.70;;
47103;SDS011;32853;52.164;5.400;2023-03-16T04:06:14;10.00;;;2.80;;
47103;SDS011;32853;52.164;5.400;2023-03-16T04:08:39;6.15;;;2.83;;
47103;SDS011;32853;52.164;5.400;2023-03-16T04:11:08;9.32;;;3.45;;
47103;SDS011;32853;52.164;5.400;2023-03-16T04:13:33;4.00;;;3.05;;
47103;SDS011;32853;52.164;5.400;2023-03-16T04:15:59;10.07;;;3.20;;
47103;SDS011;32853;52.164;5.400;2023-03-16T04:18:28;4.50;;;2.65;;
47103;SDS011;32853;52.164;5.400;2023-03-16T04:21:03;5.18;;;2.97;;
47103;SDS011;32853;52.164;5.400;2023-03-16T04:23:39;6.72;;;3.03;;
47103;SDS011;32853;52.164;5.400;2023-03-16T04:26:10;6.93;;;3.15;;
47103;SDS011;32853;52.164;5.400;2023-03-16T04:28:44;7.60;;;2.60;;
47103;SDS011;32853;52.164;5.400;2023-03-16T04:31:09;6.25;;;3.03;;
47103;SDS011;32853;52.164;5.400;2023-03-16T04:33:35;8.70;;;3.08;;
47103;SDS011;32853;52.164;5.400;2023-03-16T04:36:02;6.32;;;3.03;;
47103;SDS011;32853;52.164;5.400;2023-03-16T04:38:29;5.80;;;2.95;;
47103;SDS011;32853;52.164;5.400;2023-03-16T04:40:57;9.20;;;3.10;;
47103;SDS011;32853;52.164;5.400;2023-03-16T04:43:30;4.53;;;2.20;;
47103;SDS011;32853;52.164;5.400;2023-03-16T04:46:02;3.90;;;2.63;;
47103;SDS011;32853;52.164;5.400;2023-03-16T04:48:34;7.88;;;2.38;;
47103;SDS011;32853;52.164;5.400;2023-03-16T04:51:01;6.10;;;2.70;;
47103;SDS011;32853;52.164;5.400;2023-03-16T04:53:42;10.98;;;2.70;;
47103;SDS011;32853;52.164;5.400;2023-03-16T04:56:27;6.18;;;2.53;;
47103;SDS011;32853;52.164;5.400;2023-03-16T04:58:52;3.63;;;2.88;;
47103;SDS011;32853;52.164;5.400;2023-03-16T05:01:17;7.60;;;2.80;;
47103;SDS011;32853;52.164;5.400;2023-03-16T05:06:16;5.00;;;2.72;;
47103;SDS011;32853;52.164;5.400;2023-03-16T05:11:40;5.13;;;2.72;;
47103;SDS011;32853;52.164;5.400;2023-03-16T05:14:06;3.88;;;2.78;;
47103;SDS011;32853;52.164;5.400;2023-03-16T05:16:32;8.07;;;3.10;;
47103;SDS011;32853;52.164;5.400;2023-03-16T05:19:04;5.97;;;3.28;;
47103;SDS011;32853;52.164;5.400;2023-03-16T05:21:32;5.93;;;2.60;;
47103;SDS011;32853;52.164;5.400;2023-03-16T05:24:05;9.02;;;2.63;;
47103;SDS011;32853;52.164;5.400;2023-03-16T05:26:31;6.50;;;3.10;;
47103;SDS011;32853;52.164;5.400;2023-03-16T05:28:57;4.50;;;2.13;;
47103;SDS011;32853;52.164;5.400;2023-03-16T05:34:04;6.88;;;2.65;;
47103;SDS011;32853;52.164;5.400;2023-03-16T05:36:32;10.40;;;3.03;;
47103;SDS011;32853;52.164;5.400;2023-03-16T05:38:59;5.00;;;2.42;;
47103;SDS011;32853;52.164;5.400;2023-03-16T05:41:28;5.85;;;3.10;;
47103;SDS011;32853;52.164;5.400;2023-03-16T05:43:54;3.72;;;2.10;;
47103;SDS011;32853;52.164;5.400;2023-03-16T05:46:19;5.70;;;2.80;;
47103;SDS011;32853;52.164;5.400;2023-03-16T05:48:57;4.13;;;2.00;;
47103;SDS011;32853;52.164;5.400;2023-03-16T05:51:37;8.68;;;2.92;;
47103;SDS011;32853;52.164;5.400;2023-03-16T05:54:19;5.13;;;2.78;;
47103;SDS011;32853;52.164;5.400;2023-03-16T05:56:48;4.72;;;2.33;;
47103;SDS011;32853;52.164;5.400;2023-03-16T05:59:17;4.13;;;2.42;;
47103;SDS011;32853;52.164;5.400;2023-03-16T06:01:52;8.30;;;3.22;;
47103;SDS011;32853;52.164;5.400;2023-03-16T06:04:18;5.07;;;2.30;;
47103;SDS011;32853;52.164;5.400;2023-03-16T06:06:45;5.60;;;2.58;;
47103;SDS011;32853;52.164;5.400;2023-03-16T06:09:23;6.72;;;2.67;;
47103;SDS011;32853;52.164;5.400;2023-03-16T06:11:54;7.88;;;1.85;;
47103;SDS011;32853;52.164;5.400;2023-03-16T06:14:19;5.05;;;2.60;;
47103;SDS011;32853;52.164;5.400;2023-03-16T06:16:51;3.88;;;1.98;;
47103;SDS011;32853;52.164;5.400;2023-03-16T06:19:20;9.60;;;3.05;;
47103;SDS011;32853;52.164;5.400;2023-03-16T06:21:46;6.70;;;2.45;;
47103;SDS011;32853;52.164;5.400;2023-03-16T06:24:11;6.35;;;2.22;;
47103;SDS011;32853;52.164;5.400;2023-03-16T06:26:37;6.53;;;3.05;;
47103;SDS011;32853;52.164;5.400;2023-03-16T06:29:03;8.23;;;3.05;;
47103;SDS011;32853;52.164;5.400;2023-03-16T06:31:28;8.25;;;1.88;;
47103;SDS011;32853;52.164;5.400;2023-03-16T06:33:57;4.18;;;2.63;;
47103;SDS011;32853;52.164;5.400;2023-03-16T06:36:22;5.57;;;2.08;;
47103;SDS011;32853;52.164;5.400;2023-03-16T06:38:50;3.63;;;2.80;;
47103;SDS011;32853;52.164;5.400;2023-03-16T06:41:16;3.20;;;2.25;;
47103;SDS011;32853;52.164;5.400;2023-03-16T06:43:44;5.90;;;2.20;;
47103;SDS011;32853;52.164;5.400;2023-03-16T06:46:12;4.45;;;2.13;;
47103;SDS011;32853;52.164;5.400;2023-03-16T06:48:37;3.08;;;2.45;;
47103;SDS011;32853;52.164;5.400;2023-03-16T06:51:06;4.47;;;2.33;;
47103;SDS011;32853;52.164;5.400;2023-03-16T06:53:31;5.68;;;2.80;;
47103;SDS011;32853;52.164;5.400;2023-03-16T06:56:01;6.00;;;2.78;;
47103;SDS011;32853;52.164;5.400;2023-03-16T06:58:26;5.40;;;2.38;;
47103;SDS011;32853;52.164;5.400;2023-03-16T07:00:51;3.30;;;2.20;;
47103;SDS011;32853;52.164;5.400;2023-03-16T07:03:20;8.50;;;2.40;;
47103;SDS011;32853;52.164;5.400;2023-03-16T07:08:33;4.75;;;2.00;;
47103;SDS011;32853;52.164;5.400;2023-03-16T07:11:02;4.53;;;2.20;;
47103;SDS011;32853;52.164;5.400;2023-03-16T07:13:27;5.20;;;2.28;;
47103;SDS011;32853;52.164;5.400;2023-03-16T07:15:56;10.43;;;2.08;;
47103;SDS011;32853;52.164;5.400;2023-03-16T07:18:21;10.57;;;2.30;;
47103;SDS011;32853;52.164;5.400;2023-03-16T07:20:54;5.55;;;1.48;;
47103;SDS011;32853;52.164;5.400;2023-03-16T07:23:20;4.55;;;1.42;;
47103;SDS011;32853;52.164;5.400;2023-03-16T07:25:51;4.50;;;1.80;;
47103;SDS011;32853;52.164;5.400;2023-03-16T07:28:19;4.45;;;1.80;;
47103;SDS011;32853;52.164;5.400;2023-03-16T07:30:45;6.60;;;1.98;;
47103;SDS011;32853;52.164;5.400;2023-03-16T07:33:11;7.80;;;2.08;;
47103;SDS011;32853;52.164;5.400;2023-03-16T07:35:37;2.80;;;1.90;;
47103;SDS011;32853;52.164;5.400;2023-03-16T07:38:02;6.55;;;2.00;;
47103;SDS011;32853;52.164;5.400;2023-03-16T07:40:28;4.68;;;2.45;;
47103;SDS011;32853;52.164;5.400;2023-03-16T07:42:53;4.47;;;2.00;;
47103;SDS011;32853;52.164;5.400;2023-03-16T07:45:19;5.20;;;2.13;;
47103;SDS011;32853;52.164;5.400;2023-03-16T07:47:48;6.65;;;2.13;;
47103;SDS011;32853;52.164;5.400;2023-03-16T07:50:13;7.85;;;2.50;;
47103;SDS011;32853;52.164;5.400;2023-03-16T07:52:41;3.90;;;1.98;;
47103;SDS011;32853;52.164;5.400;2023-03-16T07:55:09;4.53;;;2.38;;
47103;SDS011;32853;52.164;5.400;2023-03-16T07:57:35;5.72;;;2.25;;
47103;SDS011;32853;52.164;5.400;2023-03-16T08:02:34;4.95;;;2.00;;
47103;SDS011;32853;52.164;5.400;2023-03-16T08:05:01;3.78;;;2.17;;
47103;SDS011;32853;52.164;5.400;2023-03-16T08:07:27;3.88;;;2.05;;
47103;SDS011;32853;52.164;5.400;2023-03-16T08:09:52;3.45;;;2.10;;
47103;SDS011;32853;52.164;5.400;2023-03-16T08:12:18;5.53;;;2.22;;
47103;SDS011;32853;52.164;5.400;2023-03-16T08:14:49;6.13;;;2.30;;
47103;SDS011;32853;52.164;5.400;2023-03-16T08:17:14;4.50;;;2.50;;
47103;SDS011;32853;52.164;5.400;2023-03-16T08:19:40;3.28;;;1.83;;
47103;SDS011;32853;52.164;5.400;2023-03-16T08:22:14;4.32;;;2.25;;
47103;SDS011;32853;52.164;5.400;2023-03-16T08:24:39;7.78;;;2.55;;
47103;SDS011;32853;52.164;5.400;2023-03-16T08:27:04;4.40;;;1.83;;
47103;SDS011;32853;52.164;5.400;2023-03-16T08:29:36;4.63;;;2.55;;
47103;SDS011;32853;52.164;5.400;2023-03-16T08:32:15;3.40;;;1.75;;
47103;SDS011;32853;52.164;5.400;2023-03-16T08:37:12;7.32;;;2.95;;
47103;SDS011;32853;52.164;5.400;2023-03-16T08:39:41;6.88;;;2.33;;
47103;SDS011;32853;52.164;5.400;2023-03-16T08:42:07;5.20;;;2.50;;
47103;SDS011;32853;52.164;5.400;2023-03-16T08:44:36;4.25;;;2.00;;
47103;SDS011;32853;52.164;5.400;2023-03-16T08:47:02;9.70;;;2.78;;
47103;SDS011;32853;52.164;5.400;2023-03-16T08:49:29;5.65;;;2.70;;
47103;SDS011;32853;52.164;5.400;2023-03-16T08:54:28;5.88;;;1.95;;
47103;SDS011;32853;52.164;5.400;2023-03-16T08:59:31;8.32;;;2.30;;
47103;SDS011;32853;52.164;5.400;2023-03-16T09:02:00;8.13;;;2.67;;
47103;SDS011;32853;52.164;5.400;2023-03-16T09:04:28;5.25;;;2.47;;
47103;SDS011;32853;52.164;5.400;2023-03-16T09:06:54;4.07;;;1.95;;
47103;SDS011;32853;52.164;5.400;2023-03-16T09:09:20;7.50;;;3.25;;
47103;SDS011;32853;52.164;5.400;2023-03-16T09:11:45;6.68;;;1.77;;
47103;SDS011;32853;52.164;5.400;2023-03-16T09:14:14;4.05;;;2.17;;
47103;SDS011;32853;52.164;5.400;2023-03-16T09:16:40;5.93;;;2.22;;
47103;SDS011;32853;52.164;5.400;2023-03-16T09:19:09;8.63;;;2.63;;
47103;SDS011;32853;52.164;5.400;2023-03-16T09:21:45;9.38;;;2.17;;
47103;SDS011;32853;52.164;5.400;2023-03-16T09:24:11;2.33;;;1.75;;
47103;SDS011;32853;52.164;5.400;2023-03-16T09:26:37;5.43;;;2.30;;
47103;SDS011;32853;52.164;5.400;2023-03-16T09:29:05;7.90;;;2.50;;
47103;SDS011;32853;52.164;5.400;2023-03-16T09:31:31;9.18;;;2.20;;
47103;SDS011;32853;52.164;5.400;2023-03-16T09:33:57;3.83;;;2.25;;
47103;SDS011;32853;52.164;5.400;2023-03-16T09:36:35;5.35;;;1.83;;
47103;SDS011;32853;52.164;5.400;2023-03-16T09:39:07;6.90;;;1.92;;
47103;SDS011;32853;52.164;5.400;2023-03-16T09:44:22;4.13;;;2.25;;
47103;SDS011;32853;52.164;5.400;2023-03-16T09:46:58;2.65;;;1.60;;
47103;SDS011;32853;52.164;5.400;2023-03-16T09:49:26;5.70;;;1.45;;
47103;SDS011;32853;52.164;5.400;2023-03-16T09:54:58;5.18;;;1.98;;
47103;SDS011;32853;52.164;5.400;2023-03-16T09:57:31;5.13;;;1.90;;
47103;SDS011;32853;52.164;5.400;2023-03-16T10:06:03;5.88;;;2.50;;
47103;SDS011;32853;52.164;5.400;2023-03-16T10:09:35;5.15;;;2.28;;
47103;SDS011;32853;52.164;5.400;2023-03-16T10:11:48;3.50;;;1.98;;
47103;SDS011;32853;52.164;5.400;2023-03-16T10:14:35;7.00;;;1.98;;
47103;SDS011;32853;52.164;5.400;2023-03-16T10:17:25;8.20;;;1.80;;
47103;SDS011;32853;52.164;5.400;2023-03-16T10:20:04;5.00;;;1.70;;
47103;SDS011;32853;52.164;5.400;2023-03-16T10:22:45;8.02;;;2.60;;
47103;SDS011;32853;52.164;5.400;2023-03-16T10:28:35;3.83;;;2.10;;
47103;SDS011;32853;52.164;5.400;2023-03-16T10:31:01;4.72;;;1.95;;
47103;SDS011;32853;52.164;5.400;2023-03-16T10:38:49;3.97;;;1.83;;
47103;SDS011;32853;52.164;5.400;2023-03-16T10:44:13;4.15;;;2.15;;
47103;SDS011;32853;52.164;5.400;2023-03-16T10:46:59;3.42;;;1.65;;
47103;SDS011;32853;52.164;5.400;2023-03-16T10:49:25;5.55;;;2.10;;
47103;SDS011;32853;52.164;5.400;2023-03-16T10:52:03;4.80;;;2.00;;
47103;SDS011;32853;52.164;5.400;2023-03-16T10:54:44;4.32;;;1.52;;
47103;SDS011;32853;52.164;5.400;2023-03-16T10:57:29;4.25;;;1.92;;
47103;SDS011;32853;52.164;5.400;2023-03-16T11:02:37;5.00;;;1.70;;
47103;SDS011;32853;52.164;5.400;2023-03-16T11:05:10;2.95;;;1.80;;
47103;SDS011;32853;52.164;5.400;2023-03-16T11:07:49;3.20;;;1.60;;
47103;SDS011;32853;52.164;5.400;2023-03-16T11:10:32;6.78;;;1.80;;
47103;SDS011;32853;52.164;5.400;2023-03-16T11:13:16;5.88;;;2.08;;
47103;SDS011;32853;52.164;5.400;2023-03-16T11:18:37;3.67;;;1.65;;
47103;SDS011;32853;52.164;5.400;2023-03-16T11:24:05;2.38;;;1.15;;
47103;SDS011;32853;52.164;5.400;2023-03-16T11:26:48;3.38;;;1.60;;
47103;SDS011;32853;52.164;5.400;2023-03-16T11:29:21;3.13;;;1.75;;
47103;SDS011;32853;52.164;5.400;2023-03-16T11:34:56;7.40;;;1.90;;
47103;SDS011;32853;52.164;5.400;2023-03-16T11:40:31;3.15;;;2.08;;
47103;SDS011;32853;52.164;5.400;2023-03-16T11:46:27;4.70;;;1.77;;
47103;SDS011;32853;52.164;5.400;2023-03-16T11:57:29;5.68;;;1.80;;
47103;SDS011;32853;52.164;5.400;2023-03-16T12:03:30;2.75;;;1.52;;
47103;SDS011;32853;52.164;5.400;2023-03-16T12:14:25;3.85;;;1.10;;
47103;SDS011;32853;52.164;5.400;2023-03-16T12:17:03;3.87;;;1.30;;
47103;SDS011;32853;52.164;5.400;2023-03-16T12:22:40;2.25;;;1.10;;
47103;SDS011;32853;52.164;5.400;2023-03-16T12:28:01;5.13;;;2.08;;
47103;SDS011;32853;52.164;5.400;2023-03-16T12:34:07;5.82;;;1.45;;
47103;SDS011;32853;52.164;5.400;2023-03-16T12:39:16;3.10;;;1.30;;
47103;SDS011;32853;52.164;5.400;2023-03-16T12:45:02;5.25;;;1.23;;
47103;SDS011;32853;52.164;5.400;2023-03-16T12:50:53;2.78;;;1.10;;
47103;SDS011;32853;52.164;5.400;2023-03-16T12:53:26;7.13;;;1.10;;
47103;SDS011;32853;52.164;5.400;2023-03-16T12:56:20;2.80;;;0.80;;
47103;SDS011;32853;52.164;5.400;2023-03-16T12:58:55;6.78;;;1.30;;
47103;SDS011;32853;52.164;5.400;2023-03-16T13:02:00;1.65;;;0.85;;
47103;SDS011;32853;52.164;5.400;2023-03-16T13:04:31;3.85;;;0.93;;
47103;SDS011;32853;52.164;5.400;2023-03-16T13:07:00;4.07;;;1.33;;
47103;SDS011;32853;52.164;5.400;2023-03-16T13:09:29;2.40;;;0.82;;
47103;SDS011;32853;52.164;5.400;2023-03-16T13:11:58;7.55;;;1.23;;
47103;SDS011;32853;52.164;5.400;2023-03-16T13:14:32;2.58;;;1.27;;
47103;SDS011;32853;52.164;5.400;2023-03-16T13:19:56;2.63;;;1.10;;
47103;SDS011;32853;52.164;5.400;2023-03-16T13:22:24;3.72;;;0.80;;
47103;SDS011;32853;52.164;5.400;2023-03-16T13:27:59;3.15;;;0.70;;
47103;SDS011;32853;52.164;5.400;2023-03-16T13:30:32;3.28;;;0.57;;
47103;SDS011;32853;52.164;5.400;2023-03-16T13:33:20;2.28;;;0.70;;
47103;SDS011;32853;52.164;5.400;2023-03-16T13:35:51;6.70;;;1.17;;
47103;SDS011;32853;52.164;5.400;2023-03-16T13:41:10;2.03;;;0.93;;
47103;SDS011;32853;52.164;5.400;2023-03-16T13:43:41;3.53;;;1.23;;
47103;SDS011;32853;52.164;5.400;2023-03-16T13:46:14;4.13;;;1.10;;
47103;SDS011;32853;52.164;5.400;2023-03-16T13:48:41;1.33;;;0.60;;
47103;SDS011;32853;52.164;5.400;2023-03-16T13:57:02;5.55;;;1.52;;
47103;SDS011;32853;52.164;5.400;2023-03-16T13:59:31;16.23;;;1.75;;
47103;SDS011;32853;52.164;5.400;2023-03-16T14:01:58;2.05;;;0.70;;
47103;SDS011;32853;52.164;5.400;2023-03-16T14:04:31;1.73;;;0.75;;
